sensor_id;sensor_type;location;lat;lon;timestamp;pressure;altitude;pressure_sealevel;temperature;humidity
45403;BME280;47427;51.976;5.326;2023-05-02T00:02:02;101971.34;;;11.17;100.00
45403;BME280;47427;51.976;5.326;2023-05-02T00:05:25;101960.31;;;11.25;100.00
45403;BME280;47427;51.976;5.326;2023-05-02T00:08:48;101968.63;;;11.36;100.00
45403;BME280;47427;51.976;5.326;2023-05-02T00:12:11;101962.78;;;11.43;100.00
45403;BME280;47427;51.976;5.326;2023-05-02T00:15:34;101966.13;;;11.39;100.00
45403;BME280;47427;51.976;5.326;2023-05-02T00:18:55;101961.25;;;11.48;100.00
45403;BME280;47427;51.976;5.326;2023-05-02T00:22:19;101962.47;;;11.36;100.00
45403;BME280;47427;51.976;5.326;2023-05-02T00:26:00;101962.41;;;11.34;100.00
45403;BME280;47427;51.976;5.326;2023-05-02T00:29:23;101968.94;;;11.44;100.00
45403;BME280;47427;51.976;5.326;2023-05-02T00:32:45;101975.69;;;11.37;100.00
45403;BME280;47427;51.976;5.326;2023-05-02T00:36:17;101971.53;;;11.42;100.00
45403;BME280;47427;51.976;5.326;2023-05-02T00:39:40;101979.81;;;11.53;100.00
45403;BME280;47427;51.976;5.326;2023-05-02T00:43:03;101971.56;;;11.44;100.00
45403;BME280;47427;51.976;5.326;2023-05-02T00:46:25;101973.19;;;11.40;100.00
45403;BME280;47427;51.976;5.326;2023-05-02T00:49:49;101974.97;;;11.41;100.00
45403;BME280;47427;51.976;5.326;2023-05-02T00:53:10;101976.78;;;11.42;100.00
45403;BME280;47427;51.976;5.326;2023-05-02T00:56:33;101966.50;;;11.48;100.00
45403;BME280;47427;51.976;5.326;2023-05-02T00:59:56;101975.41;;;11.52;100.00
45403;BME280;47427;51.976;5.326;2023-05-02T01:03:50;101980.13;;;11.61;100.00
45403;BME280;47427;51.976;5.326;2023-05-02T01:07:50;101978.28;;;11.58;100.00
45403;BME280;47427;51.976;5.326;2023-05-02T01:11:27;101983.84;;;11.66;100.00
45403;BME280;47427;51.976;5.326;2023-05-02T01:14:54;101987.44;;;11.68;100.00
45403;BME280;47427;51.976;5.326;2023-05-02T01:18:24;101988.41;;;11.70;100.00
45403;BME280;47427;51.976;5.326;2023-05-02T01:21:48;101991.38;;;11.79;100.00
45403;BME280;47427;51.976;5.326;2023-05-02T01:29:28;101990.09;;;11.69;100.00
45403;BME280;47427;51.976;5.326;2023-05-02T01:32:53;101998.59;;;11.62;100.00
45403;BME280;47427;51.976;5.326;2023-05-02T01:36:16;101992.97;;;11.53;100.00
45403;BME280;47427;51.976;5.326;2023-05-02T01:39:40;102003.16;;;11.45;100.00
45403;BME280;47427;51.976;5.326;2023-05-02T01:43:03;102009.06;;;11.40;100.00
45403;BME280;47427;51.976;5.326;2023-05-02T01:46:34;102016.00;;;11.38;100.00
45403;BME280;47427;51.976;5.326;2023-05-02T01:49:59;102015.72;;;11.32;100.00
45403;BME280;47427;51.976;5.326;2023-05-02T01:53:24;102023.09;;;11.40;100.00
45403;BME280;47427;51.976;5.326;2023-05-02T01:56:49;102024.06;;;11.42;100.00
45403;BME280;47427;51.976;5.326;2023-05-02T02:00:15;102026.50;;;11.38;100.00
45403;BME280;47427;51.976;5.326;2023-05-02T02:03:39;102031.47;;;11.32;100.00
45403;BME280;47427;51.976;5.326;2023-05-02T02:07:06;102040.41;;;11.35;100.00
45403;BME280;47427;51.976;5.326;2023-05-02T02:10:35;102042.63;;;11.26;100.00
45403;BME280;47427;51.976;5.326;2023-05-02T02:14:05;102034.88;;;11.08;100.00
45403;BME280;47427;51.976;5.326;2023-05-02T02:17:54;102043.72;;;11.10;100.00
45403;BME280;47427;51.976;5.326;2023-05-02T02:21:18;102048.84;;;11.07;100.00
45403;BME280;47427;51.976;5.326;2023-05-02T02:24:43;102046.44;;;11.12;100.00
45403;BME280;47427;51.976;5.326;2023-05-02T02:28:07;102058.16;;;11.20;100.00
45403;BME280;47427;51.976;5.326;2023-05-02T02:31:34;102066.47;;;11.10;100.00
45403;BME280;47427;51.976;5.326;2023-05-02T02:34:56;102078.28;;;11.00;100.00
45403;BME280;47427;51.976;5.326;2023-05-02T02:46:10;102098.13;;;10.74;100.00
45403;BME280;47427;51.976;5.326;2023-05-02T02:49:54;102087.13;;;10.63;100.00
45403;BME280;47427;51.976;5.326;2023-05-02T02:54:13;102093.34;;;10.65;100.00
45403;BME280;47427;51.976;5.326;2023-05-02T03:00:34;102098.78;;;10.31;100.00
45403;BME280;47427;51.976;5.326;2023-05-02T03:03:58;102105.53;;;10.27;100.00
45403;BME280;47427;51.976;5.326;2023-05-02T03:07:22;102113.59;;;10.30;100.00
45403;BME280;47427;51.976;5.326;2023-05-02T03:10:44;102110.41;;;10.19;100.00
45403;BME280;47427;51.976;5.326;2023-05-02T03:14:07;102126.78;;;10.14;100.00
45403;BME280;47427;51.976;5.326;2023-05-02T03:17:29;102122.19;;;10.10;100.00
45403;BME280;47427;51.976;5.326;2023-05-02T03:20:51;102126.84;;;9.97;100.00
45403;BME280;47427;51.976;5.326;2023-05-02T03:24:13;102130.94;;;9.92;100.00
45403;BME280;47427;51.976;5.326;2023-05-02T03:27:36;102140.63;;;9.93;100.00
45403;BME280;47427;51.976;5.326;2023-05-02T03:30:59;102139.78;;;9.94;100.00
45403;BME280;47427;51.976;5.326;2023-05-02T03:34:23;102143.53;;;9.99;100.00
45403;BME280;47427;51.976;5.326;2023-05-02T03:37:46;102143.16;;;10.10;99.82
45403;BME280;47427;51.976;5.326;2023-05-02T03:41:09;102146.03;;;10.14;99.40
45403;BME280;47427;51.976;5.326;2023-05-02T03:44:31;102151.22;;;10.13;99.39
45403;BME280;47427;51.976;5.326;2023-05-02T03:47:53;102158.25;;;10.14;99.07
45403;BME280;47427;51.976;5.326;2023-05-02T03:51:16;102158.91;;;10.10;98.94
45403;BME280;47427;51.976;5.326;2023-05-02T03:54:43;102157.03;;;10.07;98.93
45403;BME280;47427;51.976;5.326;2023-05-02T03:58:05;102158.97;;;9.93;99.11
45403;BME280;47427;51.976;5.326;2023-05-02T04:01:29;102170.84;;;9.69;99.51
45403;BME280;47427;51.976;5.326;2023-05-02T04:04:53;102163.72;;;9.32;100.00
45403;BME280;47427;51.976;5.326;2023-05-02T04:08:18;102169.50;;;9.43;100.00
45403;BME280;47427;51.976;5.326;2023-05-02T04:11:40;102185.53;;;9.49;100.00
45403;BME280;47427;51.976;5.326;2023-05-02T04:15:04;102181.88;;;9.45;100.00
45403;BME280;47427;51.976;5.326;2023-05-02T04:18:27;102190.03;;;9.51;100.00
45403;BME280;47427;51.976;5.326;2023-05-02T04:21:50;102198.66;;;9.32;100.00
45403;BME280;47427;51.976;5.326;2023-05-02T04:25:12;102200.47;;;9.17;100.00
45403;BME280;47427;51.976;5.326;2023-05-02T04:28:37;102208.22;;;8.99;100.00
45403;BME280;47427;51.976;5.326;2023-05-02T04:31:59;102210.38;;;9.06;100.00
45403;BME280;47427;51.976;5.326;2023-05-02T04:35:23;102217.31;;;9.06;100.00
45403;BME280;47427;51.976;5.326;2023-05-02T04:38:46;102224.47;;;8.77;100.00
45403;BME280;47427;51.976;5.326;2023-05-02T04:42:10;102217.56;;;8.63;100.00
45403;BME280;47427;51.976;5.326;2023-05-02T04:45:39;102228.13;;;8.64;100.00
45403;BME280;47427;51.976;5.326;2023-05-02T04:49:06;102235.03;;;8.79;100.00
45403;BME280;47427;51.976;5.326;2023-05-02T04:52:29;102237.22;;;8.71;100.00
45403;BME280;47427;51.976;5.326;2023-05-02T04:55:52;102240.59;;;9.01;100.00
45403;BME280;47427;51.976;5.326;2023-05-02T04:59:33;102254.88;;;9.39;99.98
45403;BME280;47427;51.976;5.326;2023-05-02T05:02:57;102248.91;;;9.58;98.61
45403;BME280;47427;51.976;5.326;2023-05-02T05:06:20;102257.41;;;9.70;97.35
45403;BME280;47427;51.976;5.326;2023-05-02T05:09:42;102260.28;;;9.75;96.72
45403;BME280;47427;51.976;5.326;2023-05-02T05:13:06;102269.91;;;9.92;96.28
45403;BME280;47427;51.976;5.326;2023-05-02T05:16:28;102269.25;;;9.96;95.73
45403;BME280;47427;51.976;5.326;2023-05-02T05:19:52;102274.00;;;10.04;95.48
45403;BME280;47427;51.976;5.326;2023-05-02T05:23:14;102281.25;;;10.09;94.91
45403;BME280;47427;51.976;5.326;2023-05-02T05:26:37;102284.38;;;10.18;94.02
45403;BME280;47427;51.976;5.326;2023-05-02T05:29:59;102291.97;;;10.30;93.03
45403;BME280;47427;51.976;5.326;2023-05-02T05:33:40;102291.59;;;10.40;92.46
45403;BME280;47427;51.976;5.326;2023-05-02T05:37:04;102298.91;;;10.46;91.50
45403;BME280;47427;51.976;5.326;2023-05-02T05:40:27;102307.44;;;10.42;91.24
45403;BME280;47427;51.976;5.326;2023-05-02T05:43:53;102309.22;;;10.43;90.44
45403;BME280;47427;51.976;5.326;2023-05-02T05:47:20;102314.94;;;10.52;89.50
45403;BME280;47427;51.976;5.326;2023-05-02T05:50:45;102314.44;;;10.77;88.36
45403;BME280;47427;51.976;5.326;2023-05-02T05:54:06;102315.25;;;10.94;87.26
45403;BME280;47427;51.976;5.326;2023-05-02T05:57:31;102314.56;;;10.98;86.55
45403;BME280;47427;51.976;5.326;2023-05-02T06:01:12;102335.34;;;10.58;87.31
45403;BME280;47427;51.976;5.326;2023-05-02T06:04:36;102339.78;;;10.59;87.69
45403;BME280;47427;51.976;5.326;2023-05-02T06:07:59;102338.91;;;11.32;86.17
45403;BME280;47427;51.976;5.326;2023-05-02T06:11:21;102348.31;;;11.83;83.03
45403;BME280;47427;51.976;5.326;2023-05-02T06:14:45;102365.88;;;11.84;80.85
45403;BME280;47427;51.976;5.326;2023-05-02T06:18:08;102356.88;;;11.79;81.39
45403;BME280;47427;51.976;5.326;2023-05-02T06:21:30;102365.03;;;11.66;80.90
45403;BME280;47427;51.976;5.326;2023-05-02T06:24:53;102375.75;;;11.51;80.53
45403;BME280;47427;51.976;5.326;2023-05-02T06:28:15;102379.47;;;11.56;80.10
45403;BME280;47427;51.976;5.326;2023-05-02T06:31:37;102389.25;;;11.59;79.43
45403;BME280;47427;51.976;5.326;2023-05-02T06:35:00;102396.91;;;11.54;77.99
45403;BME280;47427;51.976;5.326;2023-05-02T06:38:23;102394.22;;;11.53;77.26
45403;BME280;47427;51.976;5.326;2023-05-02T06:41:46;102400.34;;;11.71;76.60
45403;BME280;47427;51.976;5.326;2023-05-02T06:45:12;102399.63;;;12.12;75.21
45403;BME280;47427;51.976;5.326;2023-05-02T06:48:37;102414.91;;;12.41;73.97
45403;BME280;47427;51.976;5.326;2023-05-02T06:52:00;102421.03;;;12.61;72.22
45403;BME280;47427;51.976;5.326;2023-05-02T06:55:22;102433.66;;;12.89;71.17
45403;BME280;47427;51.976;5.326;2023-05-02T06:58:44;102431.97;;;12.91;69.51
45403;BME280;47427;51.976;5.326;2023-05-02T07:02:07;102438.91;;;13.10;68.25
45403;BME280;47427;51.976;5.326;2023-05-02T07:05:29;102437.25;;;14.00;66.00
45403;BME280;47427;51.976;5.326;2023-05-02T07:08:52;102438.25;;;14.04;64.41
45403;BME280;47427;51.976;5.326;2023-05-02T07:12:15;102442.38;;;13.73;64.38
45403;BME280;47427;51.976;5.326;2023-05-02T07:15:38;102444.47;;;13.37;64.74
45403;BME280;47427;51.976;5.326;2023-05-02T07:18:59;102448.56;;;13.09;64.74
45403;BME280;47427;51.976;5.326;2023-05-02T07:22:23;102456.78;;;12.96;65.83
45403;BME280;47427;51.976;5.326;2023-05-02T07:25:44;102451.75;;;12.81;66.37
45403;BME280;47427;51.976;5.326;2023-05-02T07:29:07;102459.75;;;12.63;67.12
45403;BME280;47427;51.976;5.326;2023-05-02T07:32:31;102464.75;;;13.18;66.07
45403;BME280;47427;51.976;5.326;2023-05-02T07:35:52;102473.22;;;13.53;65.65
45403;BME280;47427;51.976;5.326;2023-05-02T07:39:17;102465.91;;;13.46;64.46
45403;BME280;47427;51.976;5.326;2023-05-02T07:42:40;102473.00;;;13.47;64.96
45403;BME280;47427;51.976;5.326;2023-05-02T07:46:05;102469.59;;;13.50;64.12
45403;BME280;47427;51.976;5.326;2023-05-02T07:49:28;102479.66;;;13.39;65.47
45403;BME280;47427;51.976;5.326;2023-05-02T07:52:49;102482.88;;;13.32;64.15
45403;BME280;47427;51.976;5.326;2023-05-02T07:56:12;102485.72;;;13.36;63.99
45403;BME280;47427;51.976;5.326;2023-05-02T07:59:34;102488.16;;;13.53;63.93
45403;BME280;47427;51.976;5.326;2023-05-02T08:02:56;102505.38;;;13.23;64.43
45403;BME280;47427;51.976;5.326;2023-05-02T08:06:19;102499.78;;;12.75;65.33
45403;BME280;47427;51.976;5.326;2023-05-02T08:09:41;102507.78;;;12.38;66.83
45403;BME280;47427;51.976;5.326;2023-05-02T08:13:03;102514.31;;;12.27;67.42
45403;BME280;47427;51.976;5.326;2023-05-02T08:16:25;102523.28;;;12.12;68.06
45403;BME280;47427;51.976;5.326;2023-05-02T08:19:47;102530.28;;;12.12;67.40
45403;BME280;47427;51.976;5.326;2023-05-02T08:23:09;102529.63;;;12.74;66.25
45403;BME280;47427;51.976;5.326;2023-05-02T08:26:32;102524.19;;;17.92;52.89
45403;BME280;47427;51.976;5.326;2023-05-02T08:29:54;102527.09;;;16.34;53.80
45403;BME280;47427;51.976;5.326;2023-05-02T08:33:17;102520.84;;;15.74;55.92
45403;BME280;47427;51.976;5.326;2023-05-02T08:36:39;102528.97;;;15.53;55.04
45403;BME280;47427;51.976;5.326;2023-05-02T08:40:02;102533.56;;;15.32;54.68
45403;BME280;47427;51.976;5.326;2023-05-02T08:43:24;102549.28;;;15.29;54.70
45403;BME280;47427;51.976;5.326;2023-05-02T08:46:47;102552.25;;;15.38;54.45
45403;BME280;47427;51.976;5.326;2023-05-02T08:50:30;102547.22;;;15.46;53.29
45403;BME280;47427;51.976;5.326;2023-05-02T08:53:53;102562.41;;;15.00;54.64
45403;BME280;47427;51.976;5.326;2023-05-02T08:57:15;102561.03;;;14.39;55.86
45403;BME280;47427;51.976;5.326;2023-05-02T09:00:40;102573.88;;;13.85;57.19
45403;BME280;47427;51.976;5.326;2023-05-02T09:04:02;102576.31;;;13.59;57.67
45403;BME280;47427;51.976;5.326;2023-05-02T09:07:25;102582.91;;;13.92;57.76
45403;BME280;47427;51.976;5.326;2023-05-02T09:10:49;102580.09;;;14.32;57.09
45403;BME280;47427;51.976;5.326;2023-05-02T09:14:15;102585.22;;;14.98;55.22
45403;BME280;47427;51.976;5.326;2023-05-02T09:17:45;102571.13;;;16.01;52.02
45403;BME280;47427;51.976;5.326;2023-05-02T09:24:43;102570.16;;;21.95;40.41
45403;BME280;47427;51.976;5.326;2023-05-02T09:28:06;102569.31;;;27.49;30.94
45403;BME280;47427;51.976;5.326;2023-05-02T09:31:32;102569.63;;;25.91;30.19
45403;BME280;47427;51.976;5.326;2023-05-02T09:35:06;102576.03;;;22.99;34.62
45403;BME280;47427;51.976;5.326;2023-05-02T09:38:29;102583.56;;;21.00;36.22
45403;BME280;47427;51.976;5.326;2023-05-02T09:41:51;102596.38;;;20.55;36.86
45403;BME280;47427;51.976;5.326;2023-05-02T09:45:20;102592.31;;;20.21;37.35
45403;BME280;47427;51.976;5.326;2023-05-02T09:48:52;102593.06;;;20.11;37.87
45403;BME280;47427;51.976;5.326;2023-05-02T09:52:18;102593.88;;;20.05;37.88
45403;BME280;47427;51.976;5.326;2023-05-02T09:55:43;102591.66;;;20.36;36.73
45403;BME280;47427;51.976;5.326;2023-05-02T09:59:15;102591.22;;;20.05;36.37
45403;BME280;47427;51.976;5.326;2023-05-02T10:02:38;102586.09;;;20.21;35.02
45403;BME280;47427;51.976;5.326;2023-05-02T10:06:02;102586.06;;;19.64;35.34
45403;BME280;47427;51.976;5.326;2023-05-02T10:09:26;102590.66;;;20.29;34.34
45403;BME280;47427;51.976;5.326;2023-05-02T10:12:50;102586.25;;;20.31;34.92
45403;BME280;47427;51.976;5.326;2023-05-02T10:16:23;102607.44;;;20.21;34.44
45403;BME280;47427;51.976;5.326;2023-05-02T10:19:57;102606.34;;;20.09;35.72
45403;BME280;47427;51.976;5.326;2023-05-02T10:23:25;102605.59;;;21.69;33.01
45403;BME280;47427;51.976;5.326;2023-05-02T10:26:48;102603.75;;;23.41;30.17
45403;BME280;47427;51.976;5.326;2023-05-02T10:30:12;102605.47;;;27.35;25.81
45403;BME280;47427;51.976;5.326;2023-05-02T10:33:40;102607.25;;;24.40;27.79
45403;BME280;47427;51.976;5.326;2023-05-02T10:37:03;102606.56;;;27.78;25.38
45403;BME280;47427;51.976;5.326;2023-05-02T10:40:25;102609.59;;;33.26;20.24
45403;BME280;47427;51.976;5.326;2023-05-02T10:43:48;102606.25;;;35.75;16.81
45403;BME280;47427;51.976;5.326;2023-05-02T10:47:23;102590.41;;;34.14;17.57
45403;BME280;47427;51.976;5.326;2023-05-02T10:50:49;102598.53;;;28.68;21.93
45403;BME280;47427;51.976;5.326;2023-05-02T10:54:22;102602.09;;;33.11;18.34
45403;BME280;47427;51.976;5.326;2023-05-02T11:05:02;102617.00;;;26.04;23.70
45403;BME280;47427;51.976;5.326;2023-05-02T11:11:50;102612.56;;;33.64;17.85
45403;BME280;47427;51.976;5.326;2023-05-02T11:18:59;102613.25;;;34.89;16.88
45403;BME280;47427;51.976;5.326;2023-05-02T11:25:54;102616.25;;;27.90;21.36
45403;BME280;47427;51.976;5.326;2023-05-02T11:29:50;102624.38;;;35.03;17.09
45403;BME280;47427;51.976;5.326;2023-05-02T11:33:13;102620.91;;;37.07;14.45
45403;BME280;47427;51.976;5.326;2023-05-02T11:36:38;102620.06;;;31.13;18.34
45403;BME280;47427;51.976;5.326;2023-05-02T11:40:20;102616.63;;;29.05;19.72
45403;BME280;47427;51.976;5.326;2023-05-02T11:43:42;102613.56;;;30.59;18.72
45403;BME280;47427;51.976;5.326;2023-05-02T11:47:03;102615.75;;;27.66;21.21
45403;BME280;47427;51.976;5.326;2023-05-02T11:50:26;102606.22;;;32.02;17.43
45403;BME280;47427;51.976;5.326;2023-05-02T11:53:51;102612.75;;;35.72;15.02
45403;BME280;47427;51.976;5.326;2023-05-02T11:57:13;102613.09;;;32.60;16.73
45403;BME280;47427;51.976;5.326;2023-05-02T12:00:36;102627.94;;;31.75;17.04
45403;BME280;47427;51.976;5.326;2023-05-02T12:04:03;102624.66;;;35.71;15.33
45403;BME280;47427;51.976;5.326;2023-05-02T12:07:42;102623.19;;;36.99;14.30
45403;BME280;47427;51.976;5.326;2023-05-02T12:11:06;102627.66;;;35.48;15.20
45403;BME280;47427;51.976;5.326;2023-05-02T12:14:31;102639.38;;;34.16;15.96
45403;BME280;47427;51.976;5.326;2023-05-02T12:17:55;102628.66;;;33.91;15.39
45403;BME280;47427;51.976;5.326;2023-05-02T12:21:17;102643.91;;;34.94;15.28
45403;BME280;47427;51.976;5.326;2023-05-02T12:24:40;102631.59;;;33.86;15.18
45403;BME280;47427;51.976;5.326;2023-05-02T12:28:03;102636.34;;;31.67;17.09
45403;BME280;47427;51.976;5.326;2023-05-02T12:31:26;102640.81;;;35.57;15.21
45403;BME280;47427;51.976;5.326;2023-05-02T12:34:50;102641.50;;;32.99;15.62
45403;BME280;47427;51.976;5.326;2023-05-02T12:38:18;102637.63;;;28.03;19.37
45403;BME280;47427;51.976;5.326;2023-05-02T12:41:43;102655.34;;;27.64;19.73
45403;BME280;47427;51.976;5.326;2023-05-02T12:45:17;102656.53;;;32.37;17.14
45403;BME280;47427;51.976;5.326;2023-05-02T12:48:40;102666.91;;;30.57;17.73
45403;BME280;47427;51.976;5.326;2023-05-02T12:52:01;102665.72;;;29.66;19.01
45403;BME280;47427;51.976;5.326;2023-05-02T12:55:24;102657.06;;;33.19;15.99
45403;BME280;47427;51.976;5.326;2023-05-02T12:58:48;102662.88;;;34.39;15.33
45403;BME280;47427;51.976;5.326;2023-05-02T13:02:11;102672.84;;;33.33;16.18
45403;BME280;47427;51.976;5.326;2023-05-02T13:05:34;102673.22;;;35.09;15.00
45403;BME280;47427;51.976;5.326;2023-05-02T13:08:56;102673.75;;;35.17;15.11
45403;BME280;47427;51.976;5.326;2023-05-02T13:12:19;102673.72;;;33.33;15.46
45403;BME280;47427;51.976;5.326;2023-05-02T13:15:42;102668.81;;;32.96;16.34
45403;BME280;47427;51.976;5.326;2023-05-02T13:19:04;102670.44;;;35.11;14.65
45403;BME280;47427;51.976;5.326;2023-05-02T13:22:27;102671.53;;;35.26;13.85
45403;BME280;47427;51.976;5.326;2023-05-02T13:25:50;102675.56;;;34.19;14.52
45403;BME280;47427;51.976;5.326;2023-05-02T13:29:11;102679.25;;;34.58;15.18
45403;BME280;47427;51.976;5.326;2023-05-02T13:32:34;102674.28;;;34.67;15.20
45403;BME280;47427;51.976;5.326;2023-05-02T13:35:56;102668.41;;;35.14;15.16
45403;BME280;47427;51.976;5.326;2023-05-02T13:39:18;102675.50;;;35.00;14.65
45403;BME280;47427;51.976;5.326;2023-05-02T13:42:41;102674.28;;;31.69;16.50
45403;BME280;47427;51.976;5.326;2023-05-02T13:46:02;102674.06;;;32.53;16.35
45403;BME280;47427;51.976;5.326;2023-05-02T13:49:25;102674.78;;;33.07;15.96
45403;BME280;47427;51.976;5.326;2023-05-02T13:52:48;102681.81;;;34.42;14.70
45403;BME280;47427;51.976;5.326;2023-05-02T13:56:09;102683.66;;;34.41;14.18
45403;BME280;47427;51.976;5.326;2023-05-02T13:59:32;102683.31;;;31.13;16.89
45403;BME280;47427;51.976;5.326;2023-05-02T14:02:54;102689.00;;;33.14;15.76
45403;BME280;47427;51.976;5.326;2023-05-02T14:06:17;102681.50;;;33.20;15.61
45403;BME280;47427;51.976;5.326;2023-05-02T14:09:39;102690.53;;;33.21;15.78
45403;BME280;47427;51.976;5.326;2023-05-02T14:13:01;102690.16;;;33.52;15.60
45403;BME280;47427;51.976;5.326;2023-05-02T14:16:24;102681.66;;;32.69;15.44
45403;BME280;47427;51.976;5.326;2023-05-02T14:19:47;102678.41;;;32.83;15.62
45403;BME280;47427;51.976;5.326;2023-05-02T14:23:08;102684.94;;;33.48;14.95
45403;BME280;47427;51.976;5.326;2023-05-02T14:26:31;102673.91;;;33.29;15.05
45403;BME280;47427;51.976;5.326;2023-05-02T14:29:53;102686.50;;;33.53;15.28
45403;BME280;47427;51.976;5.326;2023-05-02T14:33:16;102686.53;;;33.30;15.14
45403;BME280;47427;51.976;5.326;2023-05-02T14:36:39;102691.72;;;32.90;15.48
45403;BME280;47427;51.976;5.326;2023-05-02T14:40:04;102691.31;;;29.88;16.80
45403;BME280;47427;51.976;5.326;2023-05-02T14:43:28;102692.09;;;30.92;17.03
45403;BME280;47427;51.976;5.326;2023-05-02T14:46:53;102685.28;;;32.69;16.08
45403;BME280;47427;51.976;5.326;2023-05-02T14:50:16;102690.03;;;32.63;15.84
45403;BME280;47427;51.976;5.326;2023-05-02T14:53:39;102675.63;;;32.84;15.86
45403;BME280;47427;51.976;5.326;2023-05-02T14:57:01;102682.53;;;32.93;15.74
45403;BME280;47427;51.976;5.326;2023-05-02T15:00:25;102679.47;;;32.78;16.36
45403;BME280;47427;51.976;5.326;2023-05-02T15:03:47;102678.00;;;32.70;16.04
45403;BME280;47427;51.976;5.326;2023-05-02T15:07:10;102681.44;;;32.25;16.33
45403;BME280;47427;51.976;5.326;2023-05-02T15:10:37;102680.00;;;32.39;16.06
45403;BME280;47427;51.976;5.326;2023-05-02T15:14:00;102679.78;;;32.94;15.95
45403;BME280;47427;51.976;5.326;2023-05-02T15:17:23;102684.16;;;32.75;15.90
45403;BME280;47427;51.976;5.326;2023-05-02T15:20:46;102678.66;;;33.00;15.89
45403;BME280;47427;51.976;5.326;2023-05-02T15:24:07;102681.28;;;33.03;16.16
45403;BME280;47427;51.976;5.326;2023-05-02T15:27:49;102688.63;;;32.76;16.12
45403;BME280;47427;51.976;5.326;2023-05-02T15:31:10;102689.22;;;32.84;15.86
45403;BME280;47427;51.976;5.326;2023-05-02T15:34:32;102700.56;;;32.47;16.02
45403;BME280;47427;51.976;5.326;2023-05-02T15:37:54;102694.97;;;32.01;16.34
45403;BME280;47427;51.976;5.326;2023-05-02T15:41:16;102692.09;;;32.06;16.16
45403;BME280;47427;51.976;5.326;2023-05-02T15:44:39;102700.97;;;31.26;16.32
45403;BME280;47427;51.976;5.326;2023-05-02T15:48:01;102698.34;;;30.94;17.46
45403;BME280;47427;51.976;5.326;2023-05-02T15:51:23;102701.38;;;30.52;17.40
45403;BME280;47427;51.976;5.326;2023-05-02T15:54:46;102694.16;;;29.82;17.36
45403;BME280;47427;51.976;5.326;2023-05-02T15:58:09;102695.88;;;28.63;18.91
45403;BME280;47427;51.976;5.326;2023-05-02T16:01:31;102695.69;;;28.24;18.70
45403;BME280;47427;51.976;5.326;2023-05-02T16:04:54;102703.41;;;27.96;19.25
45403;BME280;47427;51.976;5.326;2023-05-02T16:08:16;102705.75;;;28.16;19.53
45403;BME280;47427;51.976;5.326;2023-05-02T16:11:38;102706.03;;;27.98;18.87
45403;BME280;47427;51.976;5.326;2023-05-02T16:15:01;102721.13;;;27.54;19.69
45403;BME280;47427;51.976;5.326;2023-05-02T16:18:22;102716.22;;;26.36;20.15
45403;BME280;47427;51.976;5.326;2023-05-02T16:21:49;102715.44;;;26.28;20.29
45403;BME280;47427;51.976;5.326;2023-05-02T16:25:12;102716.50;;;26.09;20.86
45403;BME280;47427;51.976;5.326;2023-05-02T16:28:35;102706.06;;;25.63;20.67
45403;BME280;47427;51.976;5.326;2023-05-02T16:31:58;102709.03;;;25.06;20.37
45403;BME280;47427;51.976;5.326;2023-05-02T16:35:20;102707.47;;;23.85;22.29
45403;BME280;47427;51.976;5.326;2023-05-02T16:38:42;102692.44;;;22.20;24.42
45403;BME280;47427;51.976;5.326;2023-05-02T16:42:05;102698.84;;;20.71;26.02
45403;BME280;47427;51.976;5.326;2023-05-02T16:45:27;102705.88;;;19.16;27.98
45403;BME280;47427;51.976;5.326;2023-05-02T16:48:50;102708.47;;;18.35;29.78
45403;BME280;47427;51.976;5.326;2023-05-02T16:52:11;102714.03;;;17.75;31.13
45403;BME280;47427;51.976;5.326;2023-05-02T16:55:34;102714.28;;;17.19;31.78
45403;BME280;47427;51.976;5.326;2023-05-02T16:58:57;102720.31;;;16.85;32.82
45403;BME280;47427;51.976;5.326;2023-05-02T17:02:18;102720.28;;;16.56;33.64
45403;BME280;47427;51.976;5.326;2023-05-02T17:05:43;102718.78;;;16.37;34.13
45403;BME280;47427;51.976;5.326;2023-05-02T17:09:06;102730.22;;;16.09;34.95
45403;BME280;47427;51.976;5.326;2023-05-02T17:12:27;102725.28;;;15.93;35.16
45403;BME280;47427;51.976;5.326;2023-05-02T17:15:50;102735.34;;;15.77;35.90
45403;BME280;47427;51.976;5.326;2023-05-02T17:19:12;102745.09;;;15.56;36.25
45403;BME280;47427;51.976;5.326;2023-05-02T17:22:36;102744.16;;;15.30;36.53
45403;BME280;47427;51.976;5.326;2023-05-02T17:25:59;102724.72;;;15.05;37.32
45403;BME280;47427;51.976;5.326;2023-05-02T17:29:21;102731.28;;;14.70;38.25
45403;BME280;47427;51.976;5.326;2023-05-02T17:32:44;102727.19;;;14.56;38.48
45403;BME280;47427;51.976;5.326;2023-05-02T17:36:06;102728.25;;;14.38;38.96
45403;BME280;47427;51.976;5.326;2023-05-02T17:39:28;102728.50;;;14.23;39.38
45403;BME280;47427;51.976;5.326;2023-05-02T17:42:51;102738.59;;;14.13;39.54
45403;BME280;47427;51.976;5.326;2023-05-02T17:46:12;102745.19;;;14.01;40.43
45403;BME280;47427;51.976;5.326;2023-05-02T17:49:35;102745.97;;;13.79;40.80
45403;BME280;47427;51.976;5.326;2023-05-02T17:52:57;102746.97;;;13.62;41.95
45403;BME280;47427;51.976;5.326;2023-05-02T17:56:19;102746.13;;;13.42;42.04
45403;BME280;47427;51.976;5.326;2023-05-02T17:59:42;102763.59;;;13.40;42.23
45403;BME280;47427;51.976;5.326;2023-05-02T18:03:05;102760.28;;;13.26;42.60
45403;BME280;47427;51.976;5.326;2023-05-02T18:06:28;102759.13;;;13.19;43.06
45403;BME280;47427;51.976;5.326;2023-05-02T18:10:09;102755.34;;;12.95;43.50
45403;BME280;47427;51.976;5.326;2023-05-02T18:13:32;102757.56;;;12.68;44.22
45403;BME280;47427;51.976;5.326;2023-05-02T18:16:55;102771.81;;;12.53;44.91
45403;BME280;47427;51.976;5.326;2023-05-02T18:20:17;102776.75;;;12.47;45.66
45403;BME280;47427;51.976;5.326;2023-05-02T18:23:39;102768.31;;;12.36;45.83